Data for 05/20/2006

Time Sea-Level Adjusted Pressure Absolute Pressure Temperature Relative Humidity Dew Point   
(mb) (inHg) (mb) (inHg) (C) (F) (%) (C) (F)
00:05 1016 30 845 24.95 15.7 60.3 64 9 48.3
00:10 1016 30 846 24.98 15.6 60.1 65 9.1 48.3
00:15 1016 30 846 24.98 15.9 60.6 63 8.9 48
00:20 1017 30.03 846 24.98 16.2 61.2 63 9.2 48.5
00:25 1016 30 846 24.98 16.3 61.3 63 9.3 48.7
00:30 1016 30 845 24.95 16.1 60.9 64 9.2 48.6
00:35 1016 30 845 24.95 16.1 61 64 9.4 48.9
00:40 1016 30 845 24.95 15.9 60.7 65 9.5 49.1
00:45 1016 30 845 24.95 15.7 60.3 65 9.3 48.7
00:50 1016 30 845 24.95 16 60.8 63 8.9 48.1
00:55 1016 30 845 24.95 16.2 61.1 63 9.1 48.4
01:00 1016 30 846 24.98 16.1 61 63 9.1 48.4
01:05 1017 30.03 846 24.98 16.2 61.1 63 9.1 48.5
01:10 1017 30.03 846 24.98 16.4 61.4 66 10.1 50.2
01:15 1017 30.03 846 24.98 15.8 60.5 72 10.7 51.3
01:20 1017 30.03 847 25.01 15.2 59.3 78 11.4 52.5
01:25 1018 30.06 847 25.01 14.4 57.8 83 11.6 52.9
01:30 1018 30.06 847 25.01 13.5 56.3 86 11.3 52.3
01:35 1018 30.06 847 25.01 13.6 56.5 80 10.3 50.5
01:40 1018 30.06 848 25.04 13.8 56.8 81 10.6 51.2
01:45 1018 30.06 848 25.04 13.6 56.4 81 10.3 50.6
01:50 1018 30.06 848 25.04 13.7 56.7 80 10.5 50.8
01:55 1018 30.06 847 25.01 13.8 56.8 81 10.5 51
02:00 1018 30.06 847 25.01 13.9 56.9 82 10.8 51.4
02:05 1018 30.06 847 25.01 13.9 57 81 10.8 51.4
02:10 1018 30.06 847 25.01 13.4 56.2 89 11.6 52.9
02:15 1018 30.06 847 25.01 12.6 54.8 91 11.1 52.1
02:20 1018 30.06 847 25.01 12.4 54.4 92 11.2 52.1
02:25 1018 30.06 847 25.01 12.4 54.3 92 11.1 52
02:30 1018 30.06 847 25.01 12.5 54.4 88 10.5 50.8
02:35 1018 30.06 847 25.01 13 55.3 84 10.3 50.5
02:40 1018 30.06 847 25.01 13.5 56.4 78 9.8 49.7
02:45 1017 30.03 847 25.01 13.9 57 79 10.3 50.6
02:50 1017 30.03 847 25.01 13.7 56.7 79 10.1 50.2
02:55 1017 30.03 846 24.98 13.7 56.7 75 9.5 49.1
03:00 1017 30.03 846 24.98 14 57.1 77 10 49.9
03:05 1017 30.03 846 24.98 14.1 57.4 76 10 50.1
03:10 1017 30.03 846 24.98 13.8 56.9 76 9.7 49.4
03:15 1017 30.03 846 24.98 13.8 56.9 81 10.6 51.1
03:20 1017 30.03 846 24.98 13.3 55.9 80 9.8 49.7
03:25 1017 30.03 846 24.98 13.2 55.8 74 8.8 47.8
03:30 1017 30.03 846 24.98 13.8 56.9 74 9.3 48.7
03:35 1017 30.03 846 24.98 14.1 57.3 73 9.4 48.9
03:40 1017 30.03 846 24.98 13.9 57.1 74 9.5 49.1
03:45 1017 30.03 846 24.98 13.5 56.2 82 10.4 50.8
03:50 1017 30.03 846 24.98 12.7 54.9 86 10.4 50.7
03:55 1017 30.03 846 24.98 12.5 54.6 85 10.1 50.1
04:00 1017 30.03 846 24.98 12.6 54.7 84 10 50.1
04:05 1017 30.03 846 24.98 12.9 55.1 79 9.3 48.7
04:10 1017 30.03 846 24.98 13.4 56.1 75 9.1 48.4
04:15 1017 30.03 846 24.98 13.7 56.6 74 9.2 48.6
04:20 1017 30.03 846 24.98 13.7 56.6 75 9.3 48.7
04:25 1017 30.03 846 24.98 13.6 56.4 75 9.3 48.8
04:30 1017 30.03 846 24.98 13.3 55.9 77 9.4 48.9
04:35 1017 30.03 846 24.98 12.8 55 83 10 50
04:40 1017 30.03 846 24.98 12.4 54.3 83 9.7 49.4
04:45 1017 30.03 846 24.98 12.2 53.9 85 9.8 49.6
04:50 1017 30.03 846 24.98 12 53.6 85 9.6 49.4
04:55 1016 30 846 24.98 12.1 53.7 83 9.4 48.9
05:00 1016 30 846 24.98 12.3 54.2 82 9.3 48.7
05:05 1016 30 845 24.95 12.5 54.4 82 9.4 49
05:10 1016 30 845 24.95 12.5 54.4 82 9.4 49
05:15 1016 30 845 24.95 12.4 54.4 82 9.4 48.9
05:20 1016 30 845 24.95 12.4 54.3 81 9.3 48.7
05:25 1016 30 845 24.95 12.4 54.3 81 9.3 48.8
05:30 1016 30 845 24.95 12.3 54.1 82 9.3 48.7
05:35 1016 30 845 24.95 12.2 54 82 9.3 48.7
05:40 1016 30 845 24.95 12.1 53.8 83 9.4 48.8
05:45 1016 30 845 24.95 12 53.5 82 9.1 48.4
05:50 1016 30 845 24.95 12 53.6 82 9 48.2
05:55 1016 30 845 24.95 12 53.7 81 9 48.2
06:00 1016 30 845 24.95 12 53.5 82 9 48.3
06:05 1016 30 845 24.95 11.9 53.4 81 8.8 47.8
06:10 1015 29.97 845 24.95 12 53.7 80 8.7 47.7
06:15 1015 29.97 845 24.95 12.1 53.9 79 8.6 47.5
06:20 1015 29.97 845 24.95 12.2 54 79 8.7 47.6
06:25 1015 29.97 845 24.95 12.3 54.1 78 8.6 47.4
06:30 1015 29.97 845 24.95 12.3 54.2 78 8.6 47.4
06:35 1015 29.97 845 24.95 12.4 54.3 77 8.6 47.4
06:40 1015 29.97 845 24.95 12.5 54.5 76 8.5 47.3
06:45 1015 29.97 845 24.95 12.7 54.9 75 8.4 47.2
06:50 1015 29.97 845 24.95 13.1 55.5 74 8.5 47.4
06:55 1015 29.97 845 24.95 13.3 56 74 8.7 47.7
07:00 1015 29.97 845 24.95 13.4 56.1 73 8.7 47.6
07:05 1015 29.97 845 24.95 13.5 56.4 72 8.6 47.4
07:10 1015 29.97 845 24.95 14 57.2 69 8.6 47.4
07:15 1015 29.97 845 24.95 14.1 57.4 71 8.9 48.1
07:20 1015 29.97 845 24.95 14.2 57.6 71 9 48.1
07:25 1016 30 845 24.95 14.4 57.8 68 8.7 47.6
07:30 1016 30 845 24.95 14.6 58.2 68 8.8 47.8
07:35 1017 30.03 846 24.98 14.8 58.6 67 8.9 48
07:40 1017 30.03 846 24.98 15 59 68 9.2 48.6
07:45 1017 30.03 846 24.98 15 58.9 69 9.4 48.8
07:50 1017 30.03 846 24.98 14.9 58.8 67 8.8 47.8
07:55 1017 30.03 846 24.98 14.9 58.9 69 9.3 48.7
08:00 1017 30.03 846 24.98 15.1 59.1 66 8.9 48.1
08:05 1017 30.03 846 24.98 14.9 58.8 72 9.9 49.8
08:10 1017 30.03 846 24.98 14.5 58.2 76 10.4 50.7
08:15 1017 30.03 846 24.98 13.8 56.9 81 10.7 51.3
08:20 1017 30.03 846 24.98 13.4 56.1 84 10.8 51.5
08:25 1017 30.03 846 24.98 13.3 55.9 84 10.6 51
08:30 1017 30.03 846 24.98 13.1 55.6 83 10.4 50.7
08:35 1017 30.03 846 24.98 13.2 55.7 84 10.5 50.9
08:40 1016 30 846 24.98 13.2 55.8 85 10.7 51.3
08:45 1017 30.03 846 24.98 13.4 56.2 84 10.9 51.5
08:50 1017 30.03 846 24.98 13.5 56.4 84 10.8 51.5
08:55 1017 30.03 846 24.98 13.6 56.4 82 10.6 51
09:00 1017 30.03 846 24.98 13.6 56.6 83 10.9 51.5
09:05 1017 30.03 846 24.98 13.6 56.5 84 11 51.8
09:10 1017 30.03 847 25.01 13.5 56.4 83 10.7 51.3
09:15 1017 30.03 846 24.98 13.6 56.4 86 11.2 52.2
09:20 1017 30.03 846 24.98 13.1 55.6 91 11.7 53
09:25 1017 30.03 846 24.98 12.8 55 89 11.1 51.9
09:30 1017 30.03 846 24.98 13 55.3 90 11.3 52.4
09:35 1017 30.03 846 24.98 12.9 55.2 92 11.7 53
09:40 1016 30 845 24.95 12.9 55.2 90 11.3 52.3
09:45 1016 30 845 24.95 13.2 55.7 87 11.1 51.9
09:50 1016 30 845 24.95 13.6 56.4 86 11.3 52.3
09:55 1016 30 845 24.95 13.5 56.4 87 11.4 52.6
10:00 1016 30 845 24.95 13.7 56.7 85 11.3 52.4
10:05 1016 30 845 24.95 14.2 57.6 82 11.2 52.2
10:10 1016 30 845 24.95 14.6 58.4 81 11.5 52.7
10:15 1016 30 845 24.95 14.8 58.7 79 11.2 52.1
10:20 1016 30 845 24.95 15.3 59.5 76 11.1 52
10:25 1016 30 845 24.95 15.8 60.4 75 11.4 52.5
10:30 1016 30 845 24.95 15.8 60.4 74 11.2 52.1
10:35 1016 30 845 24.95 16.1 61 71 11 51.8
10:40 1016 30 845 24.95 16.4 61.5 70 11 51.7
10:45 1016 30 845 24.95 16.9 62.5 68 11.2 52.1
10:50 1015 29.97 845 24.95 17.4 63.4 68 11.6 52.9
10:55 1015 29.97 845 24.95 17.7 63.8 66 11.4 52.5
11:00 1015 29.97 844 24.92 18.1 64.5 64 11.2 52.1
11:05 1015 29.97 844 24.92 18.5 65.2 63 11.3 52.3
11:10 1015 29.97 844 24.92 18.9 65.9 60 11.1 52
11:15 1015 29.97 844 24.92 19.1 66.4 59 11 51.7
11:20 1015 29.97 844 24.92 19.4 66.8 56 10.5 51
11:25 1015 29.97 844 24.92 19.6 67.2 57 11 51.8
11:30 1015 29.97 844 24.92 19.8 67.6 58 11.3 52.4
11:35 1015 29.97 844 24.92 20.5 68.9 53 10.8 51.4
11:40 1015 29.97 844 24.92 20.5 68.9 55 11.1 52.1
11:45 1015 29.97 844 24.92 20.6 69 53 10.9 51.6
11:50 1015 29.97 844 24.92 20.5 69 55 11.3 52.3
11:55 1015 29.97 844 24.92 21 69.7 52 10.8 51.4
12:00 1015 29.97 844 24.92 21.4 70.4 50 10.6 51.1
12:05 1014 29.94 844 24.92 21.5 70.6 49 10.4 50.7
12:10 1014 29.94 844 24.92 21.6 70.8 47 10 50
12:15 1014 29.94 844 24.92 22.5 72.6 45 10.2 50.3
12:20 1014 29.94 844 24.92 22.6 72.7 46 10.4 50.8
12:25 1014 29.94 844 24.92 22.6 72.7 44 9.8 49.6
12:30 1014 29.94 843 24.89 22.7 72.9 45 10.4 50.7
12:35 1014 29.94 843 24.89 23 73.4 45 10.5 51
12:40 1014 29.94 843 24.89 23.5 74.2 44 10.6 51.1
12:45 1014 29.94 843 24.89 23 73.4 43 10.1 50.1
12:50 1014 29.94 843 24.89 23.1 73.7 44 10.3 50.5
12:55 1014 29.94 843 24.89 23.6 74.4 42 10.1 50.3
13:00 1014 29.94 843 24.89 23.5 74.2 40 9.4 48.9
13:05 1013 29.91 843 24.89 23.4 74.2 40 9.2 48.5
13:10 1013 29.91 842 24.86 23.7 74.7 40 9.7 49.4
13:15 1013 29.91 842 24.86 23.4 74.1 41 9.5 49
13:20 1013 29.91 842 24.86 23.2 73.7 41 9.3 48.8
13:25 1013 29.91 843 24.89 23.1 73.6 41 9.4 48.9
13:30 1014 29.94 843 24.89 22.8 73 44 10.1 50.2
13:35 1014 29.94 843 24.89 21 69.8 51 10.7 51.3
13:40 1014 29.94 843 24.89 19.2 66.5 59 11 51.9
13:45 1014 29.94 843 24.89 18.3 64.9 59 10.2 50.4
13:50 1014 29.94 843 24.89 17.7 63.8 63 10.6 51.1
13:55 1014 29.94 843 24.89 16.7 62.1 74 12.1 53.8
14:00 1015 29.97 844 24.92 15.8 60.5 78 12.1 53.8
14:05 1014 29.94 844 24.92 15.2 59.3 79 11.5 52.8
14:10 1014 29.94 843 24.89 15 59 79 11.4 52.5
14:15 1014 29.94 843 24.89 16.6 61.8 74 12 53.7
14:20 1014 29.94 843 24.89 18.1 64.5 68 12.2 54
14:25 1014 29.94 843 24.89 18.8 65.8 66 12.4 54.3
14:30 1014 29.94 843 24.89 18.6 65.5 65 12 53.6
14:35 1014 29.94 843 24.89 18.4 65.1 58 10.1 50.2
14:40 1014 29.94 843 24.89 18.5 65.3 62 11.2 52.2
14:45 1014 29.94 843 24.89 19 66.1 58 10.6 51
14:50 1014 29.94 843 24.89 20.2 68.3 53 10.5 50.9
14:55 1014 29.94 843 24.89 19.7 67.4 54 10.3 50.6
15:00 1014 29.94 843 24.89 19.9 67.9 53 10.2 50.3
15:05 1014 29.94 844 24.92 20.4 68.7 51 10.1 50.2
15:10 1015 29.97 844 24.92 20.4 68.8 52 10.4 50.6
15:15 1015 29.97 844 24.92 20.2 68.4 52 10.2 50.4
15:20 1014 29.94 844 24.92 19.9 67.8 52 10 50
15:25 1015 29.97 844 24.92 19.6 67.3 54 10.1 50.3
15:30 1015 29.97 844 24.92 19.6 67.3 56 10.8 51.4
15:35 1014 29.94 844 24.92 19.4 67 56 10.6 51.1
15:40 1015 29.97 844 24.92 18.8 65.9 57 10.3 50.5
15:45 1015 29.97 844 24.92 18.4 65.1 53 8.7 47.7
15:50 1016 30 845 24.95 18.3 64.9 56 9.6 49.2
15:55 1016 30 845 24.95 18.1 64.5 65 11.5 52.8
16:00 1016 30 845 24.95 17.2 62.9 65 10.7 51.2
16:05 1016 30 845 24.95 16.6 62 68 10.7 51.2
16:10 1016 30 845 24.95 16 60.7 73 11.2 52.2
16:15 1016 30 845 24.95 15.4 59.8 73 10.7 51.2
16:20 1015 29.97 844 24.92 15 59 73 10.3 50.6
16:25 1015 29.97 844 24.92 14.5 58 76 10.4 50.7
16:30 1016 30 845 24.95 14.7 58.5 74 10.1 50.3
16:35 1016 30 845 24.95 14.9 58.9 76 10.8 51.4
16:40 1015 29.97 844 24.92 14.7 58.5 75 10.4 50.8
16:45 1015 29.97 844 24.92 14.4 58 78 10.6 51.1
16:50 1016 30 845 24.95 14.6 58.2 81 11.4 52.5
16:55 1015 29.97 845 24.95 14.4 57.9 79 10.9 51.6
17:00 1015 29.97 845 24.95 14.5 58.1 80 11.1 52
17:05 1015 29.97 844 24.92 14.4 57.9 82 11.3 52.4
17:10 1015 29.97 844 24.92 14.5 58 78 10.7 51.2
17:15 1015 29.97 845 24.95 14.8 58.7 79 11.3 52.3
17:20 1015 29.97 845 24.95 15.1 59.1 74 10.6 51
17:25 1015 29.97 845 24.95 15.5 59.8 71 10.4 50.7
17:30 1015 29.97 844 24.92 15.7 60.2 70 10.2 50.4
17:35 1014 29.94 843 24.89 15.7 60.3 72 10.7 51.2
17:40 1014 29.94 843 24.89 16 60.8 63 9 48.1
17:45 1014 29.94 843 24.89 16.5 61.7 61 9.1 48.4
17:50 1014 29.94 843 24.89 16.6 61.9 62 9.4 49
17:55 1014 29.94 843 24.89 16.4 61.6 64 9.6 49.3
18:00 1014 29.94 843 24.89 16.3 61.3 60 8.6 47.5
18:05 1014 29.94 843 24.89 16.4 61.4 56 7.6 45.8
18:10 1014 29.94 843 24.89 16.5 61.7 56 7.9 46.2
18:15 1014 29.94 844 24.92 16.6 61.8 61 9.1 48.3
18:20 1014 29.94 844 24.92 16.6 61.9 63 9.7 49.5
18:25 1014 29.94 843 24.89 16.6 61.8 58 8.4 47.1
18:30 1014 29.94 843 24.89 16.7 62.1 61 9.2 48.6
18:35 1014 29.94 843 24.89 16.9 62.3 60 9.2 48.6
18:40 1014 29.94 843 24.89 17.1 62.7 61 9.5 49.1
18:45 1014 29.94 843 24.89 17.2 63 60 9.6 49.2
18:50 1014 29.94 843 24.89 17.6 63.7 59 9.7 49.4
18:55 1014 29.94 843 24.89 18.3 64.9 54 8.8 47.9
19:00 1014 29.94 843 24.89 18.6 65.5 53 8.8 47.9
19:05 1014 29.94 843 24.89 18.7 65.7 49 8.1 46.5
19:10 1014 29.94 843 24.89 18.9 66 50 8.2 46.8
19:15 1014 29.94 843 24.89 19 66.2 49 8.2 46.8
19:20 1014 29.94 843 24.89 19 66.2 51 8.7 47.6
19:25 1014 29.94 843 24.89 19 66.2 49 8.3 46.9
19:30 1014 29.94 843 24.89 18.9 66 48 7.8 46.1
19:35 1014 29.94 843 24.89 18.8 65.8 49 8 46.3
19:40 1014 29.94 843 24.89 18.8 65.8 49 8.1 46.6
19:45 1014 29.94 843 24.89 18.9 66 48 7.7 45.8
19:50 1014 29.94 843 24.89 19 66.3 49 8.1 46.5
19:55 1014 29.94 843 24.89 19.3 66.7 48 8 46.4
20:00 1014 29.94 843 24.89 19.3 66.8 49 8.5 47.2
20:05 1014 29.94 843 24.89 19.3 66.8 49 8.4 47.2
20:10 1014 29.94 843 24.89 19.1 66.4 53 9.5 49.2
20:15 1014 29.94 843 24.89 18.9 65.9 52 8.9 47.9
20:20 1014 29.94 843 24.89 18.8 65.8 53 9.1 48.3
20:25 1014 29.94 843 24.89 18.8 65.8 54 9.4 48.9
20:30 1014 29.94 843 24.89 18.7 65.7 54 9.4 48.8
20:35 1014 29.94 843 24.89 18.7 65.6 54 9.3 48.8
20:40 1014 29.94 843 24.89 18.5 65.4 53 8.8 47.9
20:45 1014 29.94 843 24.89 18.5 65.4 54 9.2 48.6
20:50 1014 29.94 843 24.89 18.4 65.1 55 9.2 48.5
20:55 1014 29.94 843 24.89 18.2 64.7 57 9.6 49.2
21:00 1014 29.94 843 24.89 18 64.4 57 9.5 49
21:05 1014 29.94 843 24.89 17.8 64 59 9.9 49.7
21:10 1014 29.94 843 24.89 17.6 63.6 57 9 48.2
21:15 1014 29.94 843 24.89 17.6 63.6 61 10.1 50.1
21:20 1014 29.94 843 24.89 17.1 62.8 63 10.2 50.3
21:25 1014 29.94 843 24.89 16.7 62 67 10.6 51
21:30 1014 29.94 843 24.89 16.2 61.1 69 10.6 51.2
21:35 1014 29.94 843 24.89 16 60.8 69 10.3 50.5
21:40 1014 29.94 843 24.89 16.3 61.3 64 9.6 49.2
21:45 1014 29.94 843 24.89 16.4 61.5 63 9.4 48.9
21:50 1014 29.94 844 24.92 16.4 61.5 63 9.4 49
21:55 1014 29.94 844 24.92 16.3 61.4 64 9.7 49.4
22:00 1014 29.94 844 24.92 16.1 61 65 9.6 49.2
22:05 1014 29.94 844 24.92 15.9 60.7 67 9.8 49.7
22:10 1014 29.94 844 24.92 15.7 60.3 68 9.9 49.8
22:15 1015 29.97 844 24.92 15.4 59.7 71 10.1 50.2
22:20 1015 29.97 844 24.92 15.2 59.4 72 10.2 50.3
22:25 1015 29.97 844 24.92 15.2 59.3 70 9.7 49.5
22:30 1015 29.97 844 24.92 15 59 73 10.2 50.4
22:35 1015 29.97 844 24.92 14.4 57.9 74 9.8 49.7
22:40 1015 29.97 844 24.92 14.1 57.3 77 10.1 50.1
22:45 1015 29.97 844 24.92 14.2 57.5 73 9.4 48.9
22:50 1015 29.97 844 24.92 14.2 57.6 70 8.8 47.9
22:55 1015 29.97 844 24.92 14.5 58.1 68 8.6 47.5
23:00 1015 29.97 844 24.92 14.3 57.7 71 9.2 48.5
23:05 1015 29.97 844 24.92 13.5 56.3 76 9.4 49
23:10 1015 29.97 844 24.92 12.8 55.1 75 8.6 47.5
23:15 1015 29.97 844 24.92 12.6 54.8 76 8.5 47.2
23:20 1015 29.97 844 24.92 12.4 54.4 75 8.1 46.6
23:25 1015 29.97 844 24.92 12.5 54.5 73 7.7 45.9
23:30 1015 29.97 844 24.92 12.7 54.9 72 7.9 46.3
23:35 1015 29.97 844 24.92 12.7 54.9 73 8 46.3
23:40 1015 29.97 844 24.92 13 55.3 72 8 46.5
23:45 1015 29.97 844 24.92 13 55.3 72 8.1 46.6
23:50 1015 29.97 844 24.92 12.9 55.3 72 8 46.5
23:55 1015 29.97 844 24.92 12.9 55.2 73 8.1 46.6
24:00 1015 29.97 844 24.92 12.7 54.9 73 8 46.4